Shoshone, California Weather observations

Data are for observation ending at time listed.
 Day   Time    Ave.   Ave.  Ave.  Vector   Max.   Stn.    Total    Solar   Ave.  
  of    of     Air    Rel.  Wind   Wind    Wind   Baro.  Precip.   Rad.    Soil  
Year   Day     Temp.  Hum.  Speed  Dir.    Gust   Pres.                    Temp. 
2014   (PST)    F      %     mph   deg.    mph     mb.     in.     W/m2     F   
------------------------------------------------------------------------------
 233   10:00   90.6    19    2.1   158      6.4    967     0.00     784    101.1
 233   11:00   94.1    16    2.4   172      9.3    966     0.00     898    104.7
 233   12:00   96.0    15    4.1   175     12.9    966     0.00     950    109.2
 233   13:00   97.4    15    4.8   180     15.4    965     0.00     954    113.4
 233   14:00   98.2    15    5.5   186     15.8    964     0.00     799    115.5
 233   15:00   96.9    17    5.3   177     17.3    964     0.00     523    114.9
 233   16:00   96.3    16    4.9   154     19.5    964     0.00     590    112.0
 233   17:00   93.8    18    9.8   162     20.3    964     0.00     358    107.3
 233   18:00   92.4    17    8.6   161     18.3    964     0.00     141    102.3
 233   19:00   89.8    20    6.6   159     14.7    964     0.00      11    97.8
 233   20:00   88.2    20    7.4   159     20.2    964     0.00       0    93.9
 233   21:00   86.1    28    9.1   158     23.7    965     0.00       0    90.7
 233   22:00   83.5    34    6.8   156     22.0    966     0.00       0    88.5
 233   23:00   82.2    36    5.4   156     15.0    966     0.00       0    87.2
 234    0:00   81.5    36    3.0   162     13.7    966     0.00       0    86.8
 234    1:00   80.5    37    1.7   152      9.6    966     0.00       0    85.8
 234    2:00   78.1    39    0.7   104      3.7    966     0.00       0    86.3
 234    3:00   74.6    44    1.9   332      5.4    966     0.00       0    88.6
 234    4:00   72.3    46    0.9     5      3.1    966     0.00       0    89.5
 234    5:00   70.0    50    0.5   104      3.3    966     0.00       0    89.7
 234    6:00   70.8    47    0.7    85      2.6    966     0.00      34    89.9
 234    7:00   76.4    42    1.2    82      6.1    967     0.00     201    91.8
 234    8:00   82.0    33    3.2   158     12.3    967     0.00     409    95.7
 234    9:00   84.1    31    7.6   161     17.0    966     0.00     606    98.6

Return to Shoshone, California graphs page.


Western Regional Climate Center,wrcc@dri.edu